sensor_id;sensor_type;location;lat;lon;timestamp;temperature;humidity
1614;DHT22;800;48.824;9.346;2023-04-09T00:01:10;14.20;53.60
1614;DHT22;800;48.824;9.346;2023-04-09T00:03:37;14.20;53.80
1614;DHT22;800;48.824;9.346;2023-04-09T00:06:03;14.30;54.00
1614;DHT22;800;48.824;9.346;2023-04-09T00:08:29;14.30;54.00
1614;DHT22;800;48.824;9.346;2023-04-09T00:10:56;14.30;54.10
1614;DHT22;800;48.824;9.346;2023-04-09T00:13:21;14.30;54.10
1614;DHT22;800;48.824;9.346;2023-04-09T00:15:47;14.30;54.10
1614;DHT22;800;48.824;9.346;2023-04-09T00:18:14;14.30;54.10
1614;DHT22;800;48.824;9.346;2023-04-09T00:20:40;14.20;53.90
1614;DHT22;800;48.824;9.346;2023-04-09T00:23:06;14.20;53.80
1614;DHT22;800;48.824;9.346;2023-04-09T00:25:32;14.20;53.90
1614;DHT22;800;48.824;9.346;2023-04-09T00:27:57;14.20;53.70
1614;DHT22;800;48.824;9.346;2023-04-09T00:30:23;14.20;53.80
1614;DHT22;800;48.824;9.346;2023-04-09T00:32:49;14.20;53.90
1614;DHT22;800;48.824;9.346;2023-04-09T00:35:15;14.20;53.90
1614;DHT22;800;48.824;9.346;2023-04-09T00:37:42;14.20;53.90
1614;DHT22;800;48.824;9.346;2023-04-09T00:40:08;14.20;54.00
1614;DHT22;800;48.824;9.346;2023-04-09T00:42:34;14.20;54.10
1614;DHT22;800;48.824;9.346;2023-04-09T00:45:00;14.20;54.10
1614;DHT22;800;48.824;9.346;2023-04-09T00:47:26;14.20;54.10
1614;DHT22;800;48.824;9.346;2023-04-09T00:49:56;14.20;54.10
1614;DHT22;800;48.824;9.346;2023-04-09T00:52:22;14.20;54.60
1614;DHT22;800;48.824;9.346;2023-04-09T00:54:49;14.20;54.40
1614;DHT22;800;48.824;9.346;2023-04-09T00:57:16;14.20;54.60
1614;DHT22;800;48.824;9.346;2023-04-09T00:59:42;14.20;54.60
1614;DHT22;800;48.824;9.346;2023-04-09T01:02:08;14.20;54.60
1614;DHT22;800;48.824;9.346;2023-04-09T01:04:34;14.10;54.50
1614;DHT22;800;48.824;9.346;2023-04-09T01:10:23;14.10;54.80
1614;DHT22;800;48.824;9.346;2023-04-09T01:15:44;14.00;55.00
1614;DHT22;800;48.824;9.346;2023-04-09T01:18:18;14.00;55.20
1614;DHT22;800;48.824;9.346;2023-04-09T01:20:57;14.00;55.30
1614;DHT22;800;48.824;9.346;2023-04-09T01:28:56;14.00;55.50
1614;DHT22;800;48.824;9.346;2023-04-09T01:31:28;13.90;55.40
1614;DHT22;800;48.824;9.346;2023-04-09T01:33:55;13.90;55.40
1614;DHT22;800;48.824;9.346;2023-04-09T01:36:22;13.90;55.40
1614;DHT22;800;48.824;9.346;2023-04-09T01:38:49;13.90;55.40
1614;DHT22;800;48.824;9.346;2023-04-09T01:41:19;13.90;55.40
1614;DHT22;800;48.824;9.346;2023-04-09T01:43:50;13.90;55.50
1614;DHT22;800;48.824;9.346;2023-04-09T01:46:17;13.80;55.40
1614;DHT22;800;48.824;9.346;2023-04-09T01:48:43;13.80;55.40
1614;DHT22;800;48.824;9.346;2023-04-09T01:51:09;13.90;55.40
1614;DHT22;800;48.824;9.346;2023-04-09T01:53:38;13.90;55.30
1614;DHT22;800;48.824;9.346;2023-04-09T01:56:05;13.80;55.40
1614;DHT22;800;48.824;9.346;2023-04-09T01:58:31;13.80;55.40
1614;DHT22;800;48.824;9.346;2023-04-09T02:01:35;13.80;55.40
1614;DHT22;800;48.824;9.346;2023-04-09T02:04:04;13.80;55.40
1614;DHT22;800;48.824;9.346;2023-04-09T02:06:52;13.80;55.30
1614;DHT22;800;48.824;9.346;2023-04-09T02:09:20;13.80;55.20
1614;DHT22;800;48.824;9.346;2023-04-09T02:11:49;13.80;55.20
1614;DHT22;800;48.824;9.346;2023-04-09T02:14:15;13.80;55.20
1614;DHT22;800;48.824;9.346;2023-04-09T02:16:42;13.70;55.10
1614;DHT22;800;48.824;9.346;2023-04-09T02:19:07;13.70;55.30
1614;DHT22;800;48.824;9.346;2023-04-09T02:21:33;13.70;55.40
1614;DHT22;800;48.824;9.346;2023-04-09T02:23:58;13.70;55.50
1614;DHT22;800;48.824;9.346;2023-04-09T02:26:24;13.70;55.50
1614;DHT22;800;48.824;9.346;2023-04-09T02:28:50;13.70;55.60
1614;DHT22;800;48.824;9.346;2023-04-09T02:31:16;13.40;56.00
1614;DHT22;800;48.824;9.346;2023-04-09T02:33:42;13.50;56.00
1614;DHT22;800;48.824;9.346;2023-04-09T02:36:11;13.50;55.90
1614;DHT22;800;48.824;9.346;2023-04-09T02:38:40;13.60;55.80
1614;DHT22;800;48.824;9.346;2023-04-09T02:41:07;13.60;55.80
1614;DHT22;800;48.824;9.346;2023-04-09T02:43:32;13.70;55.80
1614;DHT22;800;48.824;9.346;2023-04-09T02:45:58;13.70;55.80
1614;DHT22;800;48.824;9.346;2023-04-09T02:48:23;13.50;55.80
1614;DHT22;800;48.824;9.346;2023-04-09T02:50:49;13.50;56.10
1614;DHT22;800;48.824;9.346;2023-04-09T02:53:14;13.60;56.10
1614;DHT22;800;48.824;9.346;2023-04-09T02:55:40;13.60;56.00
1614;DHT22;800;48.824;9.346;2023-04-09T02:58:06;13.60;56.10
1614;DHT22;800;48.824;9.346;2023-04-09T03:00:31;13.60;56.10
1614;DHT22;800;48.824;9.346;2023-04-09T03:02:57;13.60;55.90
1614;DHT22;800;48.824;9.346;2023-04-09T03:05:23;13.60;55.80
1614;DHT22;800;48.824;9.346;2023-04-09T03:07:48;13.60;56.00
1614;DHT22;800;48.824;9.346;2023-04-09T03:10:14;13.60;55.80
1614;DHT22;800;48.824;9.346;2023-04-09T03:12:40;13.60;55.80
1614;DHT22;800;48.824;9.346;2023-04-09T03:15:06;13.60;55.80
1614;DHT22;800;48.824;9.346;2023-04-09T03:17:31;13.60;55.90
1614;DHT22;800;48.824;9.346;2023-04-09T03:19:57;13.60;55.90
1614;DHT22;800;48.824;9.346;2023-04-09T03:22:23;13.50;55.90
1614;DHT22;800;48.824;9.346;2023-04-09T03:24:48;13.50;55.90
1614;DHT22;800;48.824;9.346;2023-04-09T03:27:14;13.50;56.00
1614;DHT22;800;48.824;9.346;2023-04-09T03:29:40;13.50;56.50
1614;DHT22;800;48.824;9.346;2023-04-09T03:32:05;13.50;56.10
1614;DHT22;800;48.824;9.346;2023-04-09T03:34:31;13.50;56.20
1614;DHT22;800;48.824;9.346;2023-04-09T03:36:56;13.50;56.30
1614;DHT22;800;48.824;9.346;2023-04-09T03:39:22;13.50;56.20
1614;DHT22;800;48.824;9.346;2023-04-09T03:41:47;13.50;56.20
1614;DHT22;800;48.824;9.346;2023-04-09T03:44:13;13.50;56.20
1614;DHT22;800;48.824;9.346;2023-04-09T03:46:38;13.50;56.20
1614;DHT22;800;48.824;9.346;2023-04-09T03:49:04;13.50;56.20
1614;DHT22;800;48.824;9.346;2023-04-09T03:51:30;13.50;56.20
1614;DHT22;800;48.824;9.346;2023-04-09T03:53:56;13.50;56.20
1614;DHT22;800;48.824;9.346;2023-04-09T03:56:21;13.50;56.10
1614;DHT22;800;48.824;9.346;2023-04-09T03:58:47;13.50;56.10
1614;DHT22;800;48.824;9.346;2023-04-09T04:01:14;13.50;56.00
1614;DHT22;800;48.824;9.346;2023-04-09T04:03:39;13.50;56.00
1614;DHT22;800;48.824;9.346;2023-04-09T04:06:05;13.50;56.30
1614;DHT22;800;48.824;9.346;2023-04-09T04:08:30;13.40;56.20
1614;DHT22;800;48.824;9.346;2023-04-09T04:11:02;13.40;56.30
1614;DHT22;800;48.824;9.346;2023-04-09T04:13:28;13.40;56.30
1614;DHT22;800;48.824;9.346;2023-04-09T04:15:53;13.40;56.30
1614;DHT22;800;48.824;9.346;2023-04-09T04:18:19;13.40;56.30
1614;DHT22;800;48.824;9.346;2023-04-09T04:20:44;13.30;56.50
1614;DHT22;800;48.824;9.346;2023-04-09T04:23:10;13.20;56.60
1614;DHT22;800;48.824;9.346;2023-04-09T04:25:35;13.20;56.80
1614;DHT22;800;48.824;9.346;2023-04-09T04:28:01;13.10;56.80
1614;DHT22;800;48.824;9.346;2023-04-09T04:30:27;13.10;56.90
1614;DHT22;800;48.824;9.346;2023-04-09T04:32:52;13.10;56.90
1614;DHT22;800;48.824;9.346;2023-04-09T04:35:18;13.10;56.90
1614;DHT22;800;48.824;9.346;2023-04-09T04:37:43;13.10;57.00
1614;DHT22;800;48.824;9.346;2023-04-09T04:40:09;13.10;57.00
1614;DHT22;800;48.824;9.346;2023-04-09T04:42:35;13.10;57.00
1614;DHT22;800;48.824;9.346;2023-04-09T04:45:00;13.10;57.00
1614;DHT22;800;48.824;9.346;2023-04-09T04:47:26;13.10;56.90
1614;DHT22;800;48.824;9.346;2023-04-09T04:49:52;13.10;57.10
1614;DHT22;800;48.824;9.346;2023-04-09T04:52:17;13.10;57.00
1614;DHT22;800;48.824;9.346;2023-04-09T04:54:43;13.20;57.00
1614;DHT22;800;48.824;9.346;2023-04-09T04:57:09;13.20;56.90
1614;DHT22;800;48.824;9.346;2023-04-09T04:59:38;13.10;56.90
1614;DHT22;800;48.824;9.346;2023-04-09T05:02:07;13.10;57.10
1614;DHT22;800;48.824;9.346;2023-04-09T05:04:32;13.00;57.10
1614;DHT22;800;48.824;9.346;2023-04-09T05:06:58;13.00;57.10
1614;DHT22;800;48.824;9.346;2023-04-09T05:09:24;13.00;57.20
1614;DHT22;800;48.824;9.346;2023-04-09T05:11:50;13.00;57.30
1614;DHT22;800;48.824;9.346;2023-04-09T05:14:15;13.00;57.40
1614;DHT22;800;48.824;9.346;2023-04-09T05:16:41;12.80;57.70
1614;DHT22;800;48.824;9.346;2023-04-09T05:19:07;12.80;57.90
1614;DHT22;800;48.824;9.346;2023-04-09T05:21:32;12.80;58.00
1614;DHT22;800;48.824;9.346;2023-04-09T05:23:58;12.90;58.00
1614;DHT22;800;48.824;9.346;2023-04-09T05:26:24;13.00;57.90
1614;DHT22;800;48.824;9.346;2023-04-09T05:28:49;13.00;57.90
1614;DHT22;800;48.824;9.346;2023-04-09T05:31:15;13.00;57.90
1614;DHT22;800;48.824;9.346;2023-04-09T05:33:41;13.00;58.00
1614;DHT22;800;48.824;9.346;2023-04-09T05:36:07;13.00;58.10
1614;DHT22;800;48.824;9.346;2023-04-09T05:38:33;13.00;58.20
1614;DHT22;800;48.824;9.346;2023-04-09T05:40:59;13.10;58.20
1614;DHT22;800;48.824;9.346;2023-04-09T05:43:25;13.10;58.10
1614;DHT22;800;48.824;9.346;2023-04-09T05:45:50;13.10;58.10
1614;DHT22;800;48.824;9.346;2023-04-09T05:48:16;13.10;58.10
1614;DHT22;800;48.824;9.346;2023-04-09T05:50:51;12.90;58.00
1614;DHT22;800;48.824;9.346;2023-04-09T05:53:17;12.80;59.00
1614;DHT22;800;48.824;9.346;2023-04-09T05:55:43;12.80;59.10
1614;DHT22;800;48.824;9.346;2023-04-09T05:58:09;12.80;59.70
1614;DHT22;800;48.824;9.346;2023-04-09T06:00:35;12.60;59.40
1614;DHT22;800;48.824;9.346;2023-04-09T06:03:00;12.80;59.40
1614;DHT22;800;48.824;9.346;2023-04-09T06:05:26;12.70;58.90
1614;DHT22;800;48.824;9.346;2023-04-09T06:07:52;12.70;59.10
1614;DHT22;800;48.824;9.346;2023-04-09T06:10:18;12.70;59.50
1614;DHT22;800;48.824;9.346;2023-04-09T06:12:43;12.50;59.00
1614;DHT22;800;48.824;9.346;2023-04-09T06:15:10;12.50;59.10
1614;DHT22;800;48.824;9.346;2023-04-09T06:17:35;12.40;59.30
1614;DHT22;800;48.824;9.346;2023-04-09T06:20:01;12.30;59.30
1614;DHT22;800;48.824;9.346;2023-04-09T06:22:26;12.40;59.10
1614;DHT22;800;48.824;9.346;2023-04-09T06:24:52;12.70;59.00
1614;DHT22;800;48.824;9.346;2023-04-09T06:27:17;12.80;58.70
1614;DHT22;800;48.824;9.346;2023-04-09T06:29:45;13.20;58.00
1614;DHT22;800;48.824;9.346;2023-04-09T06:32:11;13.40;56.70
1614;DHT22;800;48.824;9.346;2023-04-09T06:34:37;12.90;57.20
1614;DHT22;800;48.824;9.346;2023-04-09T06:37:02;12.80;57.50
1614;DHT22;800;48.824;9.346;2023-04-09T06:39:28;12.60;57.60
1614;DHT22;800;48.824;9.346;2023-04-09T06:41:53;12.80;57.80
1614;DHT22;800;48.824;9.346;2023-04-09T06:44:19;12.60;57.70
1614;DHT22;800;48.824;9.346;2023-04-09T06:46:45;12.70;57.30
1614;DHT22;800;48.824;9.346;2023-04-09T06:49:11;12.50;57.20
1614;DHT22;800;48.824;9.346;2023-04-09T06:51:36;12.30;57.60
1614;DHT22;800;48.824;9.346;2023-04-09T06:54:02;12.10;58.00
1614;DHT22;800;48.824;9.346;2023-04-09T06:56:28;12.20;58.50
1614;DHT22;800;48.824;9.346;2023-04-09T06:58:53;12.40;58.40
1614;DHT22;800;48.824;9.346;2023-04-09T07:01:19;12.70;57.70
1614;DHT22;800;48.824;9.346;2023-04-09T07:03:45;12.80;57.10
1614;DHT22;800;48.824;9.346;2023-04-09T07:06:11;13.10;56.60
1614;DHT22;800;48.824;9.346;2023-04-09T07:08:36;13.00;56.30
1614;DHT22;800;48.824;9.346;2023-04-09T07:11:02;13.20;56.40
1614;DHT22;800;48.824;9.346;2023-04-09T07:13:28;13.50;55.30
1614;DHT22;800;48.824;9.346;2023-04-09T07:15:53;13.80;55.20
1614;DHT22;800;48.824;9.346;2023-04-09T07:18:19;14.00;53.90
1614;DHT22;800;48.824;9.346;2023-04-09T07:20:45;13.70;54.40
1614;DHT22;800;48.824;9.346;2023-04-09T07:23:10;13.80;53.70
1614;DHT22;800;48.824;9.346;2023-04-09T07:25:36;13.80;54.10
1614;DHT22;800;48.824;9.346;2023-04-09T07:28:02;13.90;53.70
1614;DHT22;800;48.824;9.346;2023-04-09T07:30:27;14.10;53.70
1614;DHT22;800;48.824;9.346;2023-04-09T07:32:53;14.20;52.40
1614;DHT22;800;48.824;9.346;2023-04-09T07:35:19;14.00;52.30
1614;DHT22;800;48.824;9.346;2023-04-09T07:37:45;14.20;52.90
1614;DHT22;800;48.824;9.346;2023-04-09T07:40:10;14.00;52.20
1614;DHT22;800;48.824;9.346;2023-04-09T07:42:37;14.00;50.80
1614;DHT22;800;48.824;9.346;2023-04-09T07:45:04;14.30;50.10
1614;DHT22;800;48.824;9.346;2023-04-09T07:47:30;14.50;48.70
1614;DHT22;800;48.824;9.346;2023-04-09T07:49:56;14.60;47.80
1614;DHT22;800;48.824;9.346;2023-04-09T07:52:22;14.80;48.10
1614;DHT22;800;48.824;9.346;2023-04-09T07:54:47;15.00;48.90
1614;DHT22;800;48.824;9.346;2023-04-09T07:57:13;15.50;48.70
1614;DHT22;800;48.824;9.346;2023-04-09T07:59:39;15.60;46.50
1614;DHT22;800;48.824;9.346;2023-04-09T08:02:04;15.30;47.30
1614;DHT22;800;48.824;9.346;2023-04-09T08:04:30;15.20;48.50
1614;DHT22;800;48.824;9.346;2023-04-09T08:06:56;14.60;48.90
1614;DHT22;800;48.824;9.346;2023-04-09T08:09:22;14.60;49.30
1614;DHT22;800;48.824;9.346;2023-04-09T08:11:48;14.60;48.10
1614;DHT22;800;48.824;9.346;2023-04-09T08:14:15;14.90;49.10
1614;DHT22;800;48.824;9.346;2023-04-09T08:16:48;15.30;47.80
1614;DHT22;800;48.824;9.346;2023-04-09T08:19:15;15.80;47.50
1614;DHT22;800;48.824;9.346;2023-04-09T08:21:42;15.70;47.00
1614;DHT22;800;48.824;9.346;2023-04-09T08:24:11;15.90;47.40
1614;DHT22;800;48.824;9.346;2023-04-09T08:26:37;16.20;46.80
1614;DHT22;800;48.824;9.346;2023-04-09T08:29:03;16.10;45.10
1614;DHT22;800;48.824;9.346;2023-04-09T08:31:29;16.10;44.50
1614;DHT22;800;48.824;9.346;2023-04-09T08:33:54;16.10;44.90
1614;DHT22;800;48.824;9.346;2023-04-09T08:36:20;15.60;44.40
1614;DHT22;800;48.824;9.346;2023-04-09T08:38:46;15.30;45.10
1614;DHT22;800;48.824;9.346;2023-04-09T08:41:17;15.50;46.40
1614;DHT22;800;48.824;9.346;2023-04-09T08:43:47;15.90;46.10
1614;DHT22;800;48.824;9.346;2023-04-09T08:46:14;16.00;44.50
1614;DHT22;800;48.824;9.346;2023-04-09T08:48:45;16.20;44.90
1614;DHT22;800;48.824;9.346;2023-04-09T08:51:15;16.60;43.90
1614;DHT22;800;48.824;9.346;2023-04-09T08:53:46;16.90;42.90
1614;DHT22;800;48.824;9.346;2023-04-09T08:56:13;16.80;41.70
1614;DHT22;800;48.824;9.346;2023-04-09T08:58:42;16.80;42.20
1614;DHT22;800;48.824;9.346;2023-04-09T09:01:18;16.30;41.90
1614;DHT22;800;48.824;9.346;2023-04-09T09:04:00;16.30;42.50
1614;DHT22;800;48.824;9.346;2023-04-09T09:06:27;16.30;43.50
1614;DHT22;800;48.824;9.346;2023-04-09T09:09:15;16.30;43.40
1614;DHT22;800;48.824;9.346;2023-04-09T09:11:45;16.60;43.80
1614;DHT22;800;48.824;9.346;2023-04-09T09:14:16;16.90;43.20
1614;DHT22;800;48.824;9.346;2023-04-09T09:17:01;17.10;42.30
1614;DHT22;800;48.824;9.346;2023-04-09T09:19:30;17.50;42.50
1614;DHT22;800;48.824;9.346;2023-04-09T09:21:56;17.90;41.20
1614;DHT22;800;48.824;9.346;2023-04-09T09:24:22;18.10;40.40
1614;DHT22;800;48.824;9.346;2023-04-09T09:26:48;18.10;40.80
1614;DHT22;800;48.824;9.346;2023-04-09T09:29:14;18.10;40.20
1614;DHT22;800;48.824;9.346;2023-04-09T09:31:51;17.60;39.60
1614;DHT22;800;48.824;9.346;2023-04-09T09:34:18;17.60;40.60
1614;DHT22;800;48.824;9.346;2023-04-09T09:36:45;17.70;40.10
1614;DHT22;800;48.824;9.346;2023-04-09T09:39:11;17.60;39.30
1614;DHT22;800;48.824;9.346;2023-04-09T09:41:38;17.00;41.70
1614;DHT22;800;48.824;9.346;2023-04-09T09:44:05;17.30;40.70
1614;DHT22;800;48.824;9.346;2023-04-09T09:46:36;17.40;40.10
1614;DHT22;800;48.824;9.346;2023-04-09T09:49:03;17.60;40.20
1614;DHT22;800;48.824;9.346;2023-04-09T09:51:30;18.00;39.80
1614;DHT22;800;48.824;9.346;2023-04-09T09:53:57;18.10;39.40
1614;DHT22;800;48.824;9.346;2023-04-09T09:56:29;18.00;39.40
1614;DHT22;800;48.824;9.346;2023-04-09T09:59:19;18.30;39.30
1614;DHT22;800;48.824;9.346;2023-04-09T10:01:53;18.10;38.90
1614;DHT22;800;48.824;9.346;2023-04-09T10:04:20;17.90;38.70
1614;DHT22;800;48.824;9.346;2023-04-09T10:06:47;17.10;40.80
1614;DHT22;800;48.824;9.346;2023-04-09T10:09:13;17.30;40.60
1614;DHT22;800;48.824;9.346;2023-04-09T10:11:39;17.50;39.80
1614;DHT22;800;48.824;9.346;2023-04-09T10:14:10;17.50;40.10
1614;DHT22;800;48.824;9.346;2023-04-09T10:16:36;17.60;39.60
1614;DHT22;800;48.824;9.346;2023-04-09T10:19:02;17.70;39.40
1614;DHT22;800;48.824;9.346;2023-04-09T10:21:42;17.90;39.70
1614;DHT22;800;48.824;9.346;2023-04-09T10:24:10;18.20;38.40
1614;DHT22;800;48.824;9.346;2023-04-09T10:26:40;18.10;38.00
1614;DHT22;800;48.824;9.346;2023-04-09T10:29:07;18.10;37.40
1614;DHT22;800;48.824;9.346;2023-04-09T10:32:05;18.10;37.90
1614;DHT22;800;48.824;9.346;2023-04-09T10:34:38;18.30;37.50
1614;DHT22;800;48.824;9.346;2023-04-09T10:37:08;18.40;36.60
1614;DHT22;800;48.824;9.346;2023-04-09T10:39:44;18.40;36.30
1614;DHT22;800;48.824;9.346;2023-04-09T10:42:31;18.10;35.50
1614;DHT22;800;48.824;9.346;2023-04-09T10:45:13;18.10;35.80
1614;DHT22;800;48.824;9.346;2023-04-09T10:47:42;18.20;36.40
1614;DHT22;800;48.824;9.346;2023-04-09T10:50:25;18.10;34.60
1614;DHT22;800;48.824;9.346;2023-04-09T10:52:56;17.60;35.20
1614;DHT22;800;48.824;9.346;2023-04-09T10:55:32;17.50;35.90
1614;DHT22;800;48.824;9.346;2023-04-09T10:57:59;17.60;35.70
1614;DHT22;800;48.824;9.346;2023-04-09T11:00:24;17.20;35.60
1614;DHT22;800;48.824;9.346;2023-04-09T11:05:31;18.00;35.10
1614;DHT22;800;48.824;9.346;2023-04-09T11:08:08;17.90;35.00
1614;DHT22;800;48.824;9.346;2023-04-09T11:10:34;18.10;35.40
1614;DHT22;800;48.824;9.346;2023-04-09T11:13:01;17.90;35.10
1614;DHT22;800;48.824;9.346;2023-04-09T11:15:27;17.70;35.30
1614;DHT22;800;48.824;9.346;2023-04-09T11:17:53;17.40;36.30
1614;DHT22;800;48.824;9.346;2023-04-09T11:20:21;17.50;35.60
1614;DHT22;800;48.824;9.346;2023-04-09T11:22:52;18.10;35.80
1614;DHT22;800;48.824;9.346;2023-04-09T11:25:19;18.30;35.30
1614;DHT22;800;48.824;9.346;2023-04-09T11:27:45;18.10;35.00
1614;DHT22;800;48.824;9.346;2023-04-09T11:30:11;18.30;34.50
1614;DHT22;800;48.824;9.346;2023-04-09T11:32:37;18.30;35.40
1614;DHT22;800;48.824;9.346;2023-04-09T11:35:03;18.70;34.20
1614;DHT22;800;48.824;9.346;2023-04-09T11:37:29;19.10;33.80
1614;DHT22;800;48.824;9.346;2023-04-09T11:39:55;19.60;33.60
1614;DHT22;800;48.824;9.346;2023-04-09T11:42:22;19.60;32.60
1614;DHT22;800;48.824;9.346;2023-04-09T11:44:50;19.40;32.70
1614;DHT22;800;48.824;9.346;2023-04-09T11:47:16;20.00;33.50
1614;DHT22;800;48.824;9.346;2023-04-09T11:49:43;20.40;31.80
1614;DHT22;800;48.824;9.346;2023-04-09T11:52:09;20.50;30.60
1614;DHT22;800;48.824;9.346;2023-04-09T11:54:35;20.30;32.10
1614;DHT22;800;48.824;9.346;2023-04-09T11:57:04;20.40;32.50
1614;DHT22;800;48.824;9.346;2023-04-09T11:59:30;20.60;32.70
1614;DHT22;800;48.824;9.346;2023-04-09T12:01:58;20.80;31.70
1614;DHT22;800;48.824;9.346;2023-04-09T12:04:24;20.90;31.00
1614;DHT22;800;48.824;9.346;2023-04-09T12:06:50;21.20;32.70
1614;DHT22;800;48.824;9.346;2023-04-09T12:09:16;21.20;31.80
1614;DHT22;800;48.824;9.346;2023-04-09T12:11:43;21.40;32.10
1614;DHT22;800;48.824;9.346;2023-04-09T12:14:13;21.50;30.10
1614;DHT22;800;48.824;9.346;2023-04-09T12:16:39;21.50;29.80
1614;DHT22;800;48.824;9.346;2023-04-09T12:19:11;21.60;30.20
1614;DHT22;800;48.824;9.346;2023-04-09T12:21:54;21.50;30.60
1614;DHT22;800;48.824;9.346;2023-04-09T12:24:24;21.80;31.30
1614;DHT22;800;48.824;9.346;2023-04-09T12:26:50;21.60;29.90
1614;DHT22;800;48.824;9.346;2023-04-09T12:29:18;21.60;29.70
1614;DHT22;800;48.824;9.346;2023-04-09T12:31:44;21.60;30.00
1614;DHT22;800;48.824;9.346;2023-04-09T12:34:10;21.70;29.70
1614;DHT22;800;48.824;9.346;2023-04-09T12:36:37;22.00;29.70
1614;DHT22;800;48.824;9.346;2023-04-09T12:39:03;22.20;29.60
1614;DHT22;800;48.824;9.346;2023-04-09T12:41:30;22.30;29.60
1614;DHT22;800;48.824;9.346;2023-04-09T12:43:56;22.20;30.30
1614;DHT22;800;48.824;9.346;2023-04-09T12:46:21;22.10;30.30
1614;DHT22;800;48.824;9.346;2023-04-09T12:48:47;21.80;30.40
1614;DHT22;800;48.824;9.346;2023-04-09T12:51:16;21.70;29.90
1614;DHT22;800;48.824;9.346;2023-04-09T12:53:41;21.50;29.80
1614;DHT22;800;48.824;9.346;2023-04-09T12:56:07;21.60;30.30
1614;DHT22;800;48.824;9.346;2023-04-09T12:58:34;21.60;30.10
1614;DHT22;800;48.824;9.346;2023-04-09T13:01:00;21.50;29.80
1614;DHT22;800;48.824;9.346;2023-04-09T13:03:26;21.40;30.00
1614;DHT22;800;48.824;9.346;2023-04-09T13:05:51;21.80;30.00
1614;DHT22;800;48.824;9.346;2023-04-09T13:08:17;22.30;30.50
1614;DHT22;800;48.824;9.346;2023-04-09T13:10:43;22.60;29.10
1614;DHT22;800;48.824;9.346;2023-04-09T13:13:09;22.40;29.40
1614;DHT22;800;48.824;9.346;2023-04-09T13:15:41;22.50;29.20
1614;DHT22;800;48.824;9.346;2023-04-09T13:18:10;22.60;29.20
1614;DHT22;800;48.824;9.346;2023-04-09T13:20:35;22.40;28.40
1614;DHT22;800;48.824;9.346;2023-04-09T13:23:01;22.30;28.60
1614;DHT22;800;48.824;9.346;2023-04-09T13:25:27;22.20;28.70
1614;DHT22;800;48.824;9.346;2023-04-09T13:27:52;22.00;28.40
1614;DHT22;800;48.824;9.346;2023-04-09T13:30:20;22.00;28.50
1614;DHT22;800;48.824;9.346;2023-04-09T13:32:45;22.00;29.10
1614;DHT22;800;48.824;9.346;2023-04-09T13:35:11;21.90;28.70
1614;DHT22;800;48.824;9.346;2023-04-09T13:37:37;21.70;28.30
1614;DHT22;800;48.824;9.346;2023-04-09T13:40:02;21.40;29.30
1614;DHT22;800;48.824;9.346;2023-04-09T13:42:28;21.50;29.50
1614;DHT22;800;48.824;9.346;2023-04-09T13:44:54;21.40;29.20
1614;DHT22;800;48.824;9.346;2023-04-09T13:47:19;21.30;29.70
1614;DHT22;800;48.824;9.346;2023-04-09T13:49:46;21.30;29.90
1614;DHT22;800;48.824;9.346;2023-04-09T13:52:12;21.10;29.70
1614;DHT22;800;48.824;9.346;2023-04-09T13:54:38;20.40;29.50
1614;DHT22;800;48.824;9.346;2023-04-09T13:57:04;20.30;30.00
1614;DHT22;800;48.824;9.346;2023-04-09T13:59:30;20.00;30.40
1614;DHT22;800;48.824;9.346;2023-04-09T14:01:56;19.90;30.80
1614;DHT22;800;48.824;9.346;2023-04-09T14:04:22;19.70;30.80
1614;DHT22;800;48.824;9.346;2023-04-09T14:06:48;19.70;31.10
1614;DHT22;800;48.824;9.346;2023-04-09T14:09:13;19.70;31.50
1614;DHT22;800;48.824;9.346;2023-04-09T14:11:39;19.60;31.20
1614;DHT22;800;48.824;9.346;2023-04-09T14:14:04;19.30;31.30
1614;DHT22;800;48.824;9.346;2023-04-09T14:16:30;19.20;31.00
1614;DHT22;800;48.824;9.346;2023-04-09T14:18:56;19.60;31.10
1614;DHT22;800;48.824;9.346;2023-04-09T14:21:22;19.40;30.40
1614;DHT22;800;48.824;9.346;2023-04-09T14:23:48;19.10;30.80
1614;DHT22;800;48.824;9.346;2023-04-09T14:26:14;19.00;32.10
1614;DHT22;800;48.824;9.346;2023-04-09T14:28:40;18.80;31.50
1614;DHT22;800;48.824;9.346;2023-04-09T14:31:07;19.00;31.80
1614;DHT22;800;48.824;9.346;2023-04-09T14:33:33;19.30;31.60
1614;DHT22;800;48.824;9.346;2023-04-09T14:35:58;19.70;31.40
1614;DHT22;800;48.824;9.346;2023-04-09T14:38:24;19.60;31.40
1614;DHT22;800;48.824;9.346;2023-04-09T14:40:50;19.80;31.70
1614;DHT22;800;48.824;9.346;2023-04-09T14:43:16;19.40;31.10
1614;DHT22;800;48.824;9.346;2023-04-09T14:45:42;19.00;31.00
1614;DHT22;800;48.824;9.346;2023-04-09T14:48:07;19.10;32.10
1614;DHT22;800;48.824;9.346;2023-04-09T14:50:33;19.30;31.90
1614;DHT22;800;48.824;9.346;2023-04-09T14:53:00;19.50;30.50
1614;DHT22;800;48.824;9.346;2023-04-09T14:55:26;19.40;30.00
1614;DHT22;800;48.824;9.346;2023-04-09T14:57:52;19.60;31.20
1614;DHT22;800;48.824;9.346;2023-04-09T15:00:17;20.00;30.30
1614;DHT22;800;48.824;9.346;2023-04-09T15:02:43;19.80;29.90
1614;DHT22;800;48.824;9.346;2023-04-09T15:05:09;20.00;30.30
1614;DHT22;800;48.824;9.346;2023-04-09T15:07:35;19.80;30.10
1614;DHT22;800;48.824;9.346;2023-04-09T15:10:01;19.70;29.70
1614;DHT22;800;48.824;9.346;2023-04-09T15:12:30;19.50;30.30
1614;DHT22;800;48.824;9.346;2023-04-09T15:14:56;19.60;30.00
1614;DHT22;800;48.824;9.346;2023-04-09T15:17:22;19.70;30.50
1614;DHT22;800;48.824;9.346;2023-04-09T15:19:48;20.10;30.00
1614;DHT22;800;48.824;9.346;2023-04-09T15:22:14;19.80;30.00
1614;DHT22;800;48.824;9.346;2023-04-09T15:24:40;19.80;30.00
1614;DHT22;800;48.824;9.346;2023-04-09T15:27:06;20.10;30.10
1614;DHT22;800;48.824;9.346;2023-04-09T15:29:32;20.20;30.60
1614;DHT22;800;48.824;9.346;2023-04-09T15:31:57;20.60;30.30
1614;DHT22;800;48.824;9.346;2023-04-09T15:34:23;20.70;29.70
1614;DHT22;800;48.824;9.346;2023-04-09T15:36:50;20.90;29.60
1614;DHT22;800;48.824;9.346;2023-04-09T15:39:17;21.20;29.50
1614;DHT22;800;48.824;9.346;2023-04-09T15:41:42;20.80;29.10
1614;DHT22;800;48.824;9.346;2023-04-09T15:44:08;20.50;30.10
1614;DHT22;800;48.824;9.346;2023-04-09T15:46:33;19.90;29.60
1614;DHT22;800;48.824;9.346;2023-04-09T15:48:59;19.70;30.60
1614;DHT22;800;48.824;9.346;2023-04-09T15:51:25;19.80;30.50
1614;DHT22;800;48.824;9.346;2023-04-09T15:53:51;19.20;30.40
1614;DHT22;800;48.824;9.346;2023-04-09T15:56:17;19.00;31.30
1614;DHT22;800;48.824;9.346;2023-04-09T15:58:44;19.30;31.50
1614;DHT22;800;48.824;9.346;2023-04-09T16:01:10;19.40;30.30
1614;DHT22;800;48.824;9.346;2023-04-09T16:03:35;19.50;30.00
1614;DHT22;800;48.824;9.346;2023-04-09T16:06:09;19.90;30.00
1614;DHT22;800;48.824;9.346;2023-04-09T16:08:38;19.50;29.90
1614;DHT22;800;48.824;9.346;2023-04-09T16:11:05;19.20;29.90
1614;DHT22;800;48.824;9.346;2023-04-09T16:13:31;19.20;30.20
1614;DHT22;800;48.824;9.346;2023-04-09T16:15:57;19.50;30.40
1614;DHT22;800;48.824;9.346;2023-04-09T16:18:23;19.70;30.20
1614;DHT22;800;48.824;9.346;2023-04-09T16:20:53;19.60;29.90
1614;DHT22;800;48.824;9.346;2023-04-09T16:23:23;19.60;30.00
1614;DHT22;800;48.824;9.346;2023-04-09T16:25:49;19.30;30.00
1614;DHT22;800;48.824;9.346;2023-04-09T16:28:19;19.10;30.20
1614;DHT22;800;48.824;9.346;2023-04-09T16:30:51;19.10;30.80